桃園國際機場 - 塔臺(二站)

METAR RCTP 140200Z 33007KT 300V360 9999 FEW015 SCT022 BKN045 32/28 Q1008 NOSIG RMK A2979=

站台狀態:Offline
最後更新:2022-08-14 10:30:01